createdAt,value
2019-02-21T00:01:17.510Z,11.00
2019-02-21T00:03:46.804Z,13.50
2019-02-21T00:06:16.134Z,10.10
2019-02-21T00:08:45.526Z,11.67
2019-02-21T00:11:14.831Z,13.60
2019-02-21T00:13:44.340Z,10.67
2019-02-21T00:16:13.649Z,10.93
2019-02-21T00:18:43.853Z,12.90
2019-02-21T00:21:13.313Z,13.57
2019-02-21T00:23:44.264Z,11.90
2019-02-21T00:26:13.564Z,11.77
2019-02-21T00:28:42.857Z,12.60
2019-02-21T00:31:12.211Z,10.37
2019-02-21T00:33:41.565Z,11.10
2019-02-21T00:36:10.943Z,12.77
2019-02-21T00:38:40.251Z,12.30
2019-02-21T00:41:09.559Z,11.87
2019-02-21T00:43:39.695Z,11.33
2019-02-21T00:46:08.983Z,11.50
2019-02-21T00:48:38.257Z,10.43
2019-02-21T00:51:07.852Z,14.43
2019-02-21T00:53:37.211Z,14.43
2019-02-21T00:56:06.482Z,15.10
2019-02-21T00:58:35.777Z,11.67
2019-02-21T01:01:05.173Z,13.23
2019-02-21T01:03:34.491Z,14.20
2019-02-21T01:06:03.855Z,14.70
2019-02-21T01:08:33.155Z,14.70
2019-02-21T01:11:02.458Z,16.33
2019-02-21T01:13:31.761Z,12.50
2019-02-21T01:16:01.029Z,15.03
2019-02-21T01:18:30.312Z,14.13
2019-02-21T01:20:59.679Z,15.47
2019-02-21T01:23:29.059Z,14.63
2019-02-21T01:25:58.357Z,12.17
2019-02-21T01:28:27.666Z,12.07
2019-02-21T01:30:57.891Z,13.30
2019-02-21T01:33:27.183Z,13.70
2019-02-21T01:35:56.547Z,12.00
2019-02-21T01:38:25.880Z,12.20
2019-02-21T01:40:55.564Z,13.17
2019-02-21T01:43:24.862Z,13.07
2019-02-21T01:45:54.490Z,13.23
2019-02-21T01:48:23.775Z,12.50
2019-02-21T01:50:53.048Z,13.30
2019-02-21T01:53:22.420Z,14.17
2019-02-21T01:55:51.742Z,13.70
2019-02-21T01:58:21.029Z,11.57
2019-02-21T02:00:50.342Z,13.23
2019-02-21T02:03:19.645Z,13.57
2019-02-21T02:05:49.000Z,15.37
2019-02-21T02:08:18.543Z,12.10
2019-02-21T02:10:48.299Z,14.50
2019-02-21T02:13:24.605Z,12.83
2019-02-21T02:15:48.631Z,12.40
2019-02-21T02:18:17.927Z,11.87
2019-02-21T02:20:47.174Z,13.80
2019-02-21T02:23:16.430Z,11.70
2019-02-21T02:25:45.755Z,12.50
2019-02-21T02:28:15.039Z,11.90
2019-02-21T02:30:44.670Z,13.57
2019-02-21T02:33:13.944Z,11.90
2019-02-21T02:35:43.242Z,12.33
2019-02-21T02:38:12.546Z,13.67
2019-02-21T02:40:41.853Z,11.10
2019-02-21T02:43:11.206Z,12.80
2019-02-21T02:45:40.505Z,12.93
2019-02-21T02:48:10.006Z,12.40
2019-02-21T02:50:39.407Z,12.67
2019-02-21T02:53:09.100Z,13.70
2019-02-21T02:55:38.556Z,13.07
2019-02-21T02:58:07.845Z,15.30
2019-02-21T03:00:37.680Z,12.57
2019-02-21T03:03:07.027Z,14.00
2019-02-21T03:05:36.377Z,11.33
2019-02-21T03:08:05.819Z,13.90
2019-02-21T03:10:35.116Z,12.77
2019-02-21T03:13:04.791Z,13.67
2019-02-21T03:15:34.992Z,11.33
2019-02-21T03:18:04.316Z,12.57
2019-02-21T03:20:33.622Z,14.17
2019-02-21T03:23:02.957Z,12.03
2019-02-21T03:25:32.272Z,13.63
2019-02-21T03:28:01.546Z,12.00
2019-02-21T03:30:31.205Z,12.07
2019-02-21T03:33:00.576Z,14.20
2019-02-21T03:35:29.939Z,12.60
2019-02-21T03:37:59.420Z,13.77
2019-02-21T03:40:28.737Z,14.43
2019-02-21T03:42:58.135Z,15.60
2019-02-21T03:45:27.522Z,14.60
2019-02-21T03:47:56.863Z,13.57
2019-02-21T03:50:26.138Z,13.43
2019-02-21T03:52:55.533Z,14.83
2019-02-21T03:55:24.835Z,15.37
2019-02-21T03:57:54.701Z,14.80
2019-02-21T04:00:24.035Z,16.40
2019-02-21T04:02:53.311Z,13.93
2019-02-21T04:05:22.641Z,14.93
2019-02-21T04:07:51.996Z,15.33
2019-02-21T04:10:22.239Z,16.60
2019-02-21T04:12:52.026Z,15.53
2019-02-21T04:15:21.317Z,15.58
2019-02-21T04:17:50.727Z,16.63
2019-02-21T04:20:20.339Z,15.57
2019-02-21T04:22:49.630Z,17.67
2019-02-21T04:25:18.915Z,15.97
2019-02-21T04:27:48.262Z,18.67
2019-02-21T04:30:17.557Z,16.80
2019-02-21T04:32:46.903Z,16.83
2019-02-21T04:35:16.163Z,15.90
2019-02-21T04:37:45.427Z,17.77
2019-02-21T04:40:14.808Z,19.17
2019-02-21T04:42:44.103Z,17.83
2019-02-21T04:45:13.703Z,14.67
2019-02-21T04:47:43.028Z,18.70
2019-02-21T04:50:12.295Z,22.57
2019-02-21T04:52:41.607Z,16.23
2019-02-21T04:55:11.005Z,15.90
2019-02-21T04:57:40.344Z,15.80
2019-02-21T05:00:11.491Z,16.63
2019-02-21T05:02:41.110Z,20.07
2019-02-21T05:05:10.389Z,18.10
2019-02-21T05:07:39.649Z,17.47
2019-02-21T05:10:08.935Z,17.33
2019-02-21T05:12:38.656Z,15.90
2019-02-21T05:15:08.108Z,17.30
2019-02-21T05:17:37.408Z,17.97
2019-02-21T05:20:06.894Z,16.50
2019-02-21T05:25:11.659Z,19.23
2019-02-21T05:27:47.325Z,18.60
2019-02-21T05:30:20.127Z,17.20
2019-02-21T05:32:58.807Z,19.13
2019-02-21T05:35:58.979Z,20.67
2019-02-21T05:38:46.040Z,20.50
2019-02-21T05:41:33.212Z,19.63
2019-02-21T05:44:09.183Z,21.47
2019-02-21T05:46:56.441Z,21.43
2019-02-21T05:49:34.559Z,19.50
2019-02-21T05:52:25.826Z,20.13
2019-02-21T05:55:17.362Z,22.53
2019-02-21T05:58:17.654Z,20.53
2019-02-21T06:01:12.004Z,21.33
2019-02-21T06:03:58.544Z,20.00
2019-02-21T06:06:54.723Z,19.30
2019-02-21T06:09:55.629Z,20.90
2019-02-21T06:12:35.358Z,18.57
2019-02-21T06:15:24.102Z,19.40
2019-02-21T06:18:21.164Z,18.23
2019-02-21T06:21:22.494Z,20.37
2019-02-21T06:24:06.194Z,19.27
2019-02-21T06:26:53.925Z,18.80
2019-02-21T06:32:13.602Z,19.70
2019-02-21T06:34:33.343Z,20.00
2019-02-21T06:37:02.671Z,19.20
2019-02-21T06:39:31.952Z,17.90
2019-02-21T06:42:01.237Z,17.93
2019-02-21T06:44:31.580Z,19.73
2019-02-21T06:47:00.887Z,19.63
2019-02-21T06:49:32.769Z,21.83
2019-02-21T06:52:01.270Z,22.07
2019-02-21T06:54:30.571Z,18.87
2019-02-21T06:56:59.884Z,19.93
2019-02-21T06:59:29.278Z,18.60
2019-02-21T07:01:58.585Z,22.27
2019-02-21T07:04:28.749Z,19.47
2019-02-21T07:06:58.033Z,20.03
2019-02-21T07:09:27.373Z,19.43
2019-02-21T07:11:56.678Z,16.70
2019-02-21T07:14:26.024Z,19.83
2019-02-21T07:16:55.356Z,18.07
2019-02-21T07:19:24.675Z,20.02
2019-02-21T07:21:54.059Z,18.37
2019-02-21T07:24:23.642Z,20.43
2019-02-21T07:26:52.954Z,18.87
2019-02-21T07:29:22.347Z,19.33
2019-02-21T07:31:51.642Z,19.57
2019-02-21T07:34:20.939Z,18.87
2019-02-21T07:36:50.284Z,22.67
2019-02-21T07:39:20.860Z,17.40
2019-02-21T07:41:50.372Z,17.77
2019-02-21T07:44:19.683Z,20.37
2019-02-21T07:46:49.095Z,18.63
2019-02-21T07:49:18.457Z,22.73
2019-02-21T07:51:48.069Z,20.93
2019-02-21T07:54:17.409Z,21.90
2019-02-21T07:56:46.755Z,24.17
2019-02-21T07:59:16.080Z,20.97
2019-02-21T08:01:45.382Z,21.77
2019-02-21T08:04:14.704Z,26.63
2019-02-21T08:06:44.073Z,23.93
2019-02-21T08:09:13.381Z,24.13
2019-02-21T08:11:42.654Z,24.70
2019-02-21T08:14:11.960Z,22.50
2019-02-21T08:16:41.510Z,22.97
2019-02-21T08:19:10.827Z,22.37
2019-02-21T08:21:43.268Z,21.17
2019-02-21T08:24:11.194Z,26.40
2019-02-21T08:26:40.528Z,20.97
2019-02-21T08:29:09.798Z,18.33
2019-02-21T08:31:39.400Z,24.50
2019-02-21T08:34:30.513Z,20.87
2019-02-21T08:36:59.875Z,21.67
2019-02-21T08:39:29.207Z,22.13
2019-02-21T08:41:58.503Z,21.97
2019-02-21T08:44:28.876Z,22.23
2019-02-21T08:46:58.415Z,24.40
2019-02-21T08:49:27.778Z,20.80
2019-02-21T08:51:57.095Z,20.03
2019-02-21T08:54:26.491Z,22.93
2019-02-21T08:56:55.839Z,20.93
2019-02-21T08:59:25.143Z,26.57
2019-02-21T09:01:54.452Z,25.67
2019-02-21T09:04:27.447Z,22.17
2019-02-21T09:06:54.782Z,20.27
2019-02-21T09:09:24.078Z,21.53
2019-02-21T09:11:53.933Z,21.27
2019-02-21T09:14:23.354Z,26.77
2019-02-21T09:16:52.634Z,21.77
2019-02-21T09:19:21.990Z,23.00
2019-02-21T09:21:53.450Z,21.27
2019-02-21T09:24:37.583Z,22.33
2019-02-21T09:26:53.334Z,23.00
2019-02-21T09:29:22.661Z,22.87
2019-02-21T09:31:52.058Z,20.37
2019-02-21T09:34:21.638Z,20.73
2019-02-21T09:36:51.027Z,21.20
2019-02-21T09:39:20.333Z,20.67
2019-02-21T09:41:49.650Z,20.97
2019-02-21T09:44:18.891Z,21.27
2019-02-21T09:46:48.216Z,21.10
2019-02-21T09:49:17.551Z,19.13
2019-02-21T09:51:46.924Z,19.27
2019-02-21T09:54:18.967Z,26.57
2019-02-21T09:56:52.796Z,22.63
2019-02-21T09:59:18.292Z,26.10
2019-02-21T10:01:47.572Z,24.90
2019-02-21T10:04:16.890Z,21.57
2019-02-21T10:06:46.194Z,19.50
2019-02-21T10:09:15.541Z,20.83
2019-02-21T10:11:44.857Z,20.30
2019-02-21T10:14:14.135Z,20.67
2019-02-21T10:16:43.482Z,21.80
2019-02-21T10:19:12.776Z,21.87
2019-02-21T10:21:42.182Z,22.03
2019-02-21T10:24:11.515Z,20.77
2019-02-21T10:26:40.832Z,22.53
2019-02-21T10:29:10.140Z,19.77
2019-02-21T10:31:39.456Z,23.60
2019-02-21T10:34:08.754Z,24.47
2019-02-21T10:36:38.034Z,21.53
2019-02-21T10:39:07.674Z,24.43
2019-02-21T10:41:36.989Z,24.67
2019-02-21T10:44:06.370Z,22.23
2019-02-21T10:46:35.687Z,25.87
2019-02-21T10:49:05.379Z,22.10
2019-02-21T10:51:34.709Z,22.03
2019-02-21T10:54:04.031Z,20.63
2019-02-21T10:56:33.377Z,22.80
2019-02-21T10:59:02.762Z,26.70
2019-02-21T11:01:32.409Z,27.30
2019-02-21T11:04:01.753Z,28.60
2019-02-21T11:06:31.080Z,25.60
2019-02-21T11:09:00.388Z,28.40
2019-02-21T11:11:29.747Z,24.03
2019-02-21T11:13:59.105Z,23.97
2019-02-21T11:16:28.426Z,29.03
2019-02-21T11:18:57.986Z,28.70
2019-02-21T11:21:27.262Z,27.47
2019-02-21T11:23:56.648Z,24.90
2019-02-21T11:26:25.982Z,25.33
2019-02-21T11:28:55.339Z,25.17
2019-02-21T11:31:25.077Z,24.00
2019-02-21T11:33:55.705Z,22.17
2019-02-21T11:36:25.014Z,23.57
2019-02-21T11:38:54.320Z,24.93
2019-02-21T11:41:23.640Z,23.50
2019-02-21T11:43:53.012Z,26.30
2019-02-21T11:46:22.404Z,24.60
2019-02-21T11:48:51.748Z,23.77
2019-02-21T11:51:21.086Z,24.80
2019-02-21T11:53:50.403Z,26.53
2019-02-21T11:56:19.741Z,21.83
2019-02-21T11:58:49.091Z,21.57
2019-02-21T12:01:18.506Z,24.43
2019-02-21T12:03:47.839Z,27.63
2019-02-21T12:06:17.214Z,23.80
2019-02-21T12:08:46.561Z,21.30
2019-02-21T12:11:15.836Z,22.53
2019-02-21T12:13:45.152Z,22.53
2019-02-21T12:16:14.716Z,21.17
2019-02-21T12:18:44.010Z,24.60
2019-02-21T12:21:13.430Z,24.03
2019-02-21T12:23:42.763Z,22.70
2019-02-21T12:26:12.026Z,24.17
2019-02-21T12:28:41.388Z,18.77
2019-02-21T12:31:10.731Z,20.17
2019-02-21T12:33:40.182Z,24.10
2019-02-21T12:36:09.545Z,20.00
2019-02-21T12:38:38.914Z,21.63
2019-02-21T12:41:08.225Z,19.67
2019-02-21T12:43:37.553Z,20.50
2019-02-21T12:46:06.856Z,22.10
2019-02-21T12:48:36.166Z,22.87
2019-02-21T12:51:05.506Z,19.33
2019-02-21T12:53:34.823Z,21.83
2019-02-21T12:56:04.136Z,21.27
2019-02-21T12:58:33.535Z,20.27
2019-02-21T13:01:02.870Z,17.70
2019-02-21T13:03:32.225Z,17.93
2019-02-21T13:06:01.557Z,18.27
2019-02-21T13:08:30.887Z,20.13
2019-02-21T13:11:00.226Z,20.70
2019-02-21T13:13:29.611Z,22.63
2019-02-21T13:15:58.913Z,20.57
2019-02-21T13:18:28.229Z,24.00
2019-02-21T13:20:57.612Z,21.42
2019-02-21T13:23:27.014Z,21.00
2019-02-21T13:25:56.345Z,18.67
2019-02-21T13:28:25.695Z,19.40
2019-02-21T13:30:55.118Z,17.60
2019-02-21T13:33:24.444Z,20.60
2019-02-21T13:35:54.081Z,18.70
2019-02-21T13:38:23.439Z,17.00
2019-02-21T13:40:52.781Z,18.17
2019-02-21T13:43:22.167Z,18.53
2019-02-21T13:45:51.474Z,19.27
2019-02-21T13:48:20.929Z,20.67
2019-02-21T13:50:50.531Z,19.93
2019-02-21T13:53:22.380Z,18.27
2019-02-21T13:55:51.772Z,17.60
2019-02-21T13:58:21.186Z,19.00
2019-02-21T14:00:50.641Z,20.33
2019-02-21T14:03:19.973Z,23.33
2019-02-21T14:05:49.435Z,17.63
2019-02-21T14:08:18.820Z,17.43
2019-02-21T14:10:48.129Z,24.47
2019-02-21T14:13:17.796Z,20.97
2019-02-21T14:15:47.100Z,22.63
2019-02-21T14:18:16.409Z,19.37
2019-02-21T14:20:45.910Z,19.93
2019-02-21T14:23:15.272Z,20.93
2019-02-21T14:25:44.574Z,21.37
2019-02-21T14:28:13.931Z,20.93
2019-02-21T14:30:43.299Z,20.23
2019-02-21T14:33:12.709Z,22.60
2019-02-21T14:35:42.082Z,23.77
2019-02-21T14:38:11.609Z,25.47
2019-02-21T14:40:40.998Z,25.50
2019-02-21T14:43:13.222Z,24.03
2019-02-21T14:45:41.778Z,25.40
2019-02-21T14:48:11.196Z,27.30
2019-02-21T14:50:40.589Z,25.47
2019-02-21T14:53:09.945Z,23.40
2019-02-21T14:55:39.352Z,24.80
2019-02-21T14:58:08.759Z,27.03
2019-02-21T15:00:39.464Z,25.17
2019-02-21T15:03:08.843Z,25.60
2019-02-21T15:05:38.137Z,25.93
2019-02-21T15:08:07.571Z,27.57
2019-02-21T15:10:36.905Z,26.30
2019-02-21T15:13:07.169Z,22.67
2019-02-21T15:15:36.445Z,32.40
2019-02-21T15:18:08.305Z,25.50
2019-02-21T15:20:37.378Z,27.07
2019-02-21T15:23:06.912Z,24.87
2019-02-21T15:25:36.292Z,29.50
2019-02-21T15:28:06.576Z,33.10
2019-02-21T15:30:35.940Z,29.40
2019-02-21T15:33:05.309Z,27.83
2019-02-21T15:35:34.664Z,31.77
2019-02-21T15:38:04.446Z,28.00
2019-02-21T15:40:33.826Z,28.83
2019-02-21T15:43:05.299Z,27.93
2019-02-21T15:45:34.247Z,27.10
2019-02-21T15:48:03.651Z,32.30
2019-02-21T15:50:33.187Z,29.33
2019-02-21T15:53:02.527Z,29.50
2019-02-21T15:55:32.334Z,32.20
2019-02-21T15:58:04.241Z,28.47
2019-02-21T16:00:32.956Z,28.23
2019-02-21T16:03:02.340Z,26.13
2019-02-21T16:05:32.069Z,32.13
2019-02-21T16:08:01.434Z,30.43
2019-02-21T16:10:30.890Z,26.57
2019-02-21T16:13:05.459Z,28.07
2019-02-21T16:15:34.983Z,27.07
2019-02-21T16:18:04.429Z,27.43
2019-02-21T16:20:33.773Z,28.17
2019-02-21T16:23:03.196Z,26.07
2019-02-21T16:25:32.583Z,28.37
2019-02-21T16:28:01.905Z,25.03
2019-02-21T16:30:31.274Z,25.33
2019-02-21T16:33:00.575Z,24.53
2019-02-21T16:35:29.953Z,28.00
2019-02-21T16:37:59.263Z,29.43
2019-02-21T16:40:28.674Z,27.33
2019-02-21T16:42:57.976Z,27.93
2019-02-21T16:45:39.961Z,29.27
2019-02-21T16:47:59.679Z,26.07
2019-02-21T16:50:30.236Z,28.27
2019-02-21T16:52:59.881Z,31.27
2019-02-21T16:55:29.321Z,26.93
2019-02-21T16:57:58.770Z,28.20
2019-02-21T17:00:42.129Z,25.80
2019-02-21T17:02:59.209Z,27.27
2019-02-21T17:05:28.745Z,22.33
2019-02-21T17:10:33.307Z,31.00
2019-02-21T17:13:02.749Z,29.13
2019-02-21T17:15:32.105Z,30.07
2019-02-21T17:18:03.731Z,32.10
2019-02-21T17:20:32.695Z,30.33
2019-02-21T17:23:02.044Z,29.97
2019-02-21T17:25:31.404Z,32.60
2019-02-21T17:28:00.744Z,31.80
2019-02-21T17:30:30.081Z,28.83
2019-02-21T17:32:59.455Z,29.57
2019-02-21T17:35:28.904Z,34.60
2019-02-21T17:37:58.290Z,34.93
2019-02-21T17:40:27.634Z,29.30
2019-02-21T17:42:57.021Z,33.90
2019-02-21T17:45:26.416Z,31.80
2019-02-21T17:47:55.784Z,36.23
2019-02-21T17:50:25.160Z,34.30
2019-02-21T17:52:54.459Z,31.70
2019-02-21T17:55:23.826Z,31.63
2019-02-21T18:00:34.426Z,34.33
2019-02-21T18:03:03.839Z,29.20
2019-02-21T18:05:33.378Z,30.07
2019-02-21T18:08:02.705Z,35.57
2019-02-21T18:10:32.015Z,34.13
2019-02-21T18:13:01.591Z,35.43
2019-02-21T18:15:30.912Z,33.80
2019-02-21T18:18:00.279Z,33.83
2019-02-21T18:20:31.834Z,33.63
2019-02-21T18:23:01.196Z,36.77
2019-02-21T18:25:34.414Z,37.77
2019-02-21T18:28:03.867Z,34.73
2019-02-21T18:30:33.377Z,33.47
2019-02-21T18:33:03.103Z,36.10
2019-02-21T18:35:32.474Z,27.90
2019-02-21T18:38:01.930Z,31.67
2019-02-21T18:40:31.327Z,31.83
2019-02-21T18:43:00.693Z,33.57
2019-02-21T18:45:30.069Z,32.50
2019-02-21T18:47:59.414Z,34.90
2019-02-21T18:50:37.801Z,34.20
2019-02-21T18:52:59.895Z,36.30
2019-02-21T18:55:29.219Z,37.33
2019-02-21T18:57:58.580Z,31.70
2019-02-21T19:00:28.156Z,28.30
2019-02-21T19:02:57.579Z,31.13
2019-02-21T19:05:35.264Z,30.43
2019-02-21T19:08:04.951Z,32.43
2019-02-21T19:10:29.204Z,27.40
2019-02-21T19:12:58.549Z,30.33
2019-02-21T19:15:28.889Z,26.13
2019-02-21T19:17:58.204Z,30.87
2019-02-21T19:20:27.615Z,29.10
2019-02-21T19:22:56.968Z,26.30
2019-02-21T19:25:26.294Z,26.57
2019-02-21T19:27:55.687Z,30.00
2019-02-21T19:30:31.249Z,25.20
2019-02-21T19:33:00.704Z,28.27
2019-02-21T19:35:30.062Z,27.93
2019-02-21T19:38:09.849Z,23.90
2019-02-21T19:40:30.900Z,25.73
2019-02-21T19:43:00.339Z,25.37
2019-02-21T19:45:33.808Z,24.90
2019-02-21T19:48:04.241Z,25.33
2019-02-21T19:50:33.863Z,28.17
2019-02-21T19:53:03.309Z,29.63
2019-02-21T19:55:33.363Z,28.57
2019-02-21T19:58:02.996Z,25.53
2019-02-21T20:00:34.161Z,27.87
2019-02-21T20:03:03.622Z,25.60
2019-02-21T20:05:32.989Z,28.30
2019-02-21T20:08:08.546Z,26.57
2019-02-21T20:10:33.493Z,28.43
2019-02-21T20:13:05.579Z,26.60
2019-02-21T20:15:34.949Z,27.80
2019-02-21T20:18:04.349Z,27.50
2019-02-21T20:20:33.809Z,26.80
2019-02-21T20:23:03.188Z,29.07
2019-02-21T20:25:32.924Z,27.23
2019-02-21T20:28:02.319Z,28.33
2019-02-21T20:30:31.722Z,30.53
2019-02-21T20:33:01.106Z,30.70
2019-02-21T20:35:30.493Z,27.30
2019-02-21T20:38:00.003Z,28.87
2019-02-21T20:40:29.437Z,30.20
2019-02-21T20:42:58.880Z,30.33
2019-02-21T20:45:28.391Z,28.17
2019-02-21T20:47:57.801Z,29.23
2019-02-21T20:50:27.172Z,32.13
2019-02-21T20:52:56.622Z,31.03
2019-02-21T20:55:26.098Z,33.07
2019-02-21T20:57:55.451Z,30.13
2019-02-21T21:00:24.915Z,32.73
2019-02-21T21:02:54.272Z,33.87
2019-02-21T21:05:23.666Z,28.97
2019-02-21T21:07:52.996Z,30.77
2019-02-21T21:10:22.379Z,28.17
2019-02-21T21:12:51.740Z,31.53
2019-02-21T21:15:21.123Z,31.17
2019-02-21T21:17:50.471Z,29.20
2019-02-21T21:20:19.807Z,31.00
2019-02-21T21:22:49.127Z,33.57
2019-02-21T21:25:18.515Z,31.33
2019-02-21T21:27:47.883Z,29.90
2019-02-21T21:30:17.530Z,30.17
2019-02-21T21:32:47.003Z,30.30
2019-02-21T21:35:16.346Z,33.33
2019-02-21T21:37:45.769Z,31.57
2019-02-21T21:40:16.127Z,31.07
2019-02-21T21:42:45.476Z,30.43
2019-02-21T21:45:16.202Z,33.93
2019-02-21T21:47:45.656Z,28.77
2019-02-21T21:50:16.715Z,35.33
2019-02-21T21:52:46.074Z,33.83
2019-02-21T21:55:15.433Z,35.10
2019-02-21T21:57:44.832Z,33.37
2019-02-21T22:00:18.843Z,34.40
2019-02-21T22:02:48.182Z,32.90
2019-02-21T22:05:17.606Z,30.17
2019-02-21T22:07:49.209Z,33.33
2019-02-21T22:10:18.089Z,35.37
2019-02-21T22:12:47.507Z,33.23
2019-02-21T22:15:17.171Z,37.87
2019-02-21T22:17:46.517Z,34.20
2019-02-21T22:20:15.881Z,35.80
2019-02-21T22:22:45.225Z,38.70
2019-02-21T22:25:14.878Z,39.63
2019-02-21T22:27:44.298Z,34.83
2019-02-21T22:30:15.107Z,34.03
2019-02-21T22:32:44.504Z,34.00
2019-02-21T22:35:13.806Z,36.73
2019-02-21T22:37:43.142Z,39.00
2019-02-21T22:40:13.146Z,36.00
2019-02-21T22:42:42.485Z,32.00
2019-02-21T22:45:11.832Z,35.53
2019-02-21T22:47:41.160Z,41.73
2019-02-21T22:50:12.628Z,34.90
2019-02-21T22:52:41.986Z,38.37
2019-02-21T22:55:11.381Z,41.20
2019-02-21T22:57:41.001Z,36.13
2019-02-21T23:01:18.139Z,36.57
2019-02-21T23:04:25.366Z,41.27
2019-02-21T23:07:30.881Z,43.23
2019-02-21T23:10:00.556Z,38.27
2019-02-21T23:12:29.869Z,39.60
2019-02-21T23:14:59.195Z,37.37
2019-02-21T23:17:28.590Z,37.33
2019-02-21T23:19:57.879Z,39.47
2019-02-21T23:22:27.621Z,38.90
2019-02-21T23:24:56.958Z,36.60
2019-02-21T23:27:26.289Z,35.33
2019-02-21T23:29:55.711Z,36.73
2019-02-21T23:32:25.024Z,35.50
2019-02-21T23:34:57.227Z,39.37
2019-02-21T23:37:26.614Z,35.53
2019-02-21T23:39:55.978Z,36.57
2019-02-21T23:42:25.241Z,37.53
2019-02-21T23:44:54.804Z,34.77
2019-02-21T23:47:24.145Z,40.10
2019-02-21T23:49:53.450Z,40.17
2019-02-21T23:52:22.800Z,39.63
2019-02-21T23:54:52.091Z,36.47
2019-02-21T23:57:21.435Z,41.30
2019-02-21T23:59:50.714Z,41.17
